F/V Fisher Golf — FUGD — position and weather

sailwx.info

Track history (hours):
 
Tides and Currents Weather Stations Pressure Air Temp Water Temp Dewpoint Dewpoint Depression Visibility Wind Speed Wind Dir Waves Ship Positions

F/V Fisher Golf

Last reported at 2018-Apr-23 00:36 UTC. Time now 2018-Apr-24 06:50 UTC.
Position N 46°27' W 003°36'.

Length 20 m.

Type: Fishing. MMSI: 228239000.

Date/timePositionNaut miles runAvg speedWind from/ knotsBaromVisibWave heightAir tempDewpointWater temp
2018-Apr-23 00:36N 46°27' W 003°36'2 3.1
2018-Apr-23 00:00N 46°27' W 003°33'1 3.0
2018-Apr-22 23:30N 46°26' W 003°31'2 3.0
2018-Apr-22 22:50N 46°26' W 003°29'1 2.9
2018-Apr-22 22:30N 46°25' W 003°27'1 2.9
2018-Apr-22 22:00N 46°25' W 003°25'1 3.0
2018-Apr-22 21:30N 46°24' W 003°23'1 2.4
2018-Apr-22 20:59N 46°24' W 003°22'1 2.9
2018-Apr-22 20:30N 46°23' W 003°20'2 2.8
2018-Apr-22 19:52N 46°22' W 003°19'7 0.7
2018-Apr-22 09:32N 46°15' W 003°23'0 2.9
2018-Apr-22 09:29N 46°15' W 003°23'6 3.3
2018-Apr-22 07:37N 46°19' W 003°31'0 1.4
2018-Apr-22 07:28N 46°19' W 003°31'1 3.1
2018-Apr-22 07:00N 46°20' W 003°32'1 2.9
2018-Apr-22 06:30N 46°21' W 003°30'10 0.2
2018-Apr-20 03:01N 46°31' W 003°26'0 4.4
2018-Apr-20 03:00N 46°31' W 003°26'75 3.9
2018-Apr-19 07:39N 45°58' W 001°49'2 9.8
2018-Apr-19 07:25N 45°57' W 001°46'4 9.7
2018-Apr-19 07:00N 45°56' W 001°40'7 9.5
2018-Apr-19 06:14N 45°55' W 001°30'2 9.9
2018-Apr-19 06:00N 45°55' W 001°27'5 4.5
2018-Apr-19 04:54N 45°55' W 001°20'0 0.0
2018-Apr-18 04:38N 45°55' W 001°20'0 0.0
2018-Apr-18 04:30N 45°55' W 001°20'0 0.0
2018-Apr-18 04:00N 45°55' W 001°20'0 0.0
2018-Apr-18 03:30N 45°55' W 001°20'0 0.0
2018-Apr-18 02:59N 45°55' W 001°20'0 0.0
2018-Apr-18 02:15N 45°55' W 001°20'0 0.0
2018-Apr-18 01:55N 45°55' W 001°20'23 1.5
2018-Apr-17 11:08N 45°56' W 001°52'2 9.6
2018-Apr-17 10:53N 45°56' W 001°56'40 6.2
2018-Apr-17 04:20N 45°60' W 002°53'1 3.2
2018-Apr-17 04:00N 45°60' W 002°55'3 3.2
2018-Apr-17 02:56N 46°01' W 002°59'3 3.7
2018-Apr-17 02:14N 46°02' W 003°03'0 1.5
2018-Apr-17 02:00N 46°02' W 003°03'  
2018-Apr-13 19:54N 46°26' W 003°27'1 3.1
2018-Apr-13 19:29N 46°25' W 003°25'  
Track history (hours):
 
Tides and Currents Weather Stations Pressure Air Temp Water Temp Dewpoint Dewpoint Depression Visibility Wind Speed Wind Dir Waves Ship Positions

F/V Fisher Golf

Last reported at 2018-Apr-23 00:36 UTC. Time now 2018-Apr-24 06:50 UTC.
Position N 46°27' W 003°36'.

Length 20 m.

Type: Fishing. MMSI: 228239000.

Date/timePositionNaut miles runAvg speedWind from/ knotsBaromVisibWave heightAir tempDewpointWater temp
2018-Apr-23 00:36N 46°27' W 003°36'2 3.1
2018-Apr-23 00:00N 46°27' W 003°33'1 3.0
2018-Apr-22 23:30N 46°26' W 003°31'2 3.0
2018-Apr-22 22:50N 46°26' W 003°29'1 2.9
2018-Apr-22 22:30N 46°25' W 003°27'1 2.9
2018-Apr-22 22:00N 46°25' W 003°25'1 3.0
2018-Apr-22 21:30N 46°24' W 003°23'1 2.4
2018-Apr-22 20:59N 46°24' W 003°22'1 2.9
2018-Apr-22 20:30N 46°23' W 003°20'2 2.8
2018-Apr-22 19:52N 46°22' W 003°19'7 0.7
2018-Apr-22 09:32N 46°15' W 003°23'0 2.9
2018-Apr-22 09:29N 46°15' W 003°23'6 3.3
2018-Apr-22 07:37N 46°19' W 003°31'0 1.4
2018-Apr-22 07:28N 46°19' W 003°31'1 3.1
2018-Apr-22 07:00N 46°20' W 003°32'1 2.9
2018-Apr-22 06:30N 46°21' W 003°30'10 0.2
2018-Apr-20 03:01N 46°31' W 003°26'0 4.4
2018-Apr-20 03:00N 46°31' W 003°26'75 3.9
2018-Apr-19 07:39N 45°58' W 001°49'2 9.8
2018-Apr-19 07:25N 45°57' W 001°46'4 9.7
2018-Apr-19 07:00N 45°56' W 001°40'7 9.5
2018-Apr-19 06:14N 45°55' W 001°30'2 9.9
2018-Apr-19 06:00N 45°55' W 001°27'5 4.5
2018-Apr-19 04:54N 45°55' W 001°20'0 0.0
2018-Apr-18 04:38N 45°55' W 001°20'0 0.0
2018-Apr-18 04:30N 45°55' W 001°20'0 0.0
2018-Apr-18 04:00N 45°55' W 001°20'0 0.0
2018-Apr-18 03:30N 45°55' W 001°20'0 0.0
2018-Apr-18 02:59N 45°55' W 001°20'0 0.0
2018-Apr-18 02:15N 45°55' W 001°20'0 0.0
2018-Apr-18 01:55N 45°55' W 001°20'23 1.5
2018-Apr-17 11:08N 45°56' W 001°52'2 9.6
2018-Apr-17 10:53N 45°56' W 001°56'40 6.2
2018-Apr-17 04:20N 45°60' W 002°53'1 3.2
2018-Apr-17 04:00N 45°60' W 002°55'3 3.2
2018-Apr-17 02:56N 46°01' W 002°59'3 3.7
2018-Apr-17 02:14N 46°02' W 003°03'0 1.5
2018-Apr-17 02:00N 46°02' W 003°03'  
2018-Apr-13 19:54N 46°26' W 003°27'1 3.1
2018-Apr-13 19:29N 46°25' W 003°25'  

Dump ship's entire track history